sensor_id;sensor_type;location;lat;lon;timestamp;P1;P2;P0
69123;PMS5003;56232;53.384;-2.732;2024-01-06T00:01:30;7;7;
69123;PMS5003;56232;53.384;-2.732;2024-01-06T00:03:56;5;4;
69123;PMS5003;56232;53.384;-2.732;2024-01-06T00:06:22;2;2;
69123;PMS5003;56232;53.384;-2.732;2024-01-06T00:08:47;4;4;
69123;PMS5003;56232;53.384;-2.732;2024-01-06T00:11:13;1;1;
69123;PMS5003;56232;53.384;-2.732;2024-01-06T00:13:39;3;2;
69123;PMS5003;56232;53.384;-2.732;2024-01-06T00:16:05;4;3;
69123;PMS5003;56232;53.384;-2.732;2024-01-06T00:18:30;6;4;
69123;PMS5003;56232;53.384;-2.732;2024-01-06T00:20:55;4;3;
69123;PMS5003;56232;53.384;-2.732;2024-01-06T00:23:22;3;3;
69123;PMS5003;56232;53.384;-2.732;2024-01-06T00:25:47;4;4;
69123;PMS5003;56232;53.384;-2.732;2024-01-06T00:28:13;2;2;
69123;PMS5003;56232;53.384;-2.732;2024-01-06T00:30:38;2;2;
69123;PMS5003;56232;53.384;-2.732;2024-01-06T00:33:04;2;2;
69123;PMS5003;56232;53.384;-2.732;2024-01-06T00:35:30;5;2;
69123;PMS5003;56232;53.384;-2.732;2024-01-06T00:37:56;6;5;
69123;PMS5003;56232;53.384;-2.732;2024-01-06T00:40:22;4;4;
69123;PMS5003;56232;53.384;-2.732;2024-01-06T00:42:47;3;3;
69123;PMS5003;56232;53.384;-2.732;2024-01-06T00:45:13;4;4;
69123;PMS5003;56232;53.384;-2.732;2024-01-06T00:47:39;2;1;
69123;PMS5003;56232;53.384;-2.732;2024-01-06T00:50:05;3;3;
69123;PMS5003;56232;53.384;-2.732;2024-01-06T00:52:30;4;4;
69123;PMS5003;56232;53.384;-2.732;2024-01-06T00:54:56;2;2;
69123;PMS5003;56232;53.384;-2.732;2024-01-06T00:57:22;3;2;
69123;PMS5003;56232;53.384;-2.732;2024-01-06T00:59:47;3;3;
69123;PMS5003;56232;53.384;-2.732;2024-01-06T01:02:13;2;2;
69123;PMS5003;56232;53.384;-2.732;2024-01-06T01:04:38;5;4;
69123;PMS5003;56232;53.384;-2.732;2024-01-06T01:07:04;3;3;
69123;PMS5003;56232;53.384;-2.732;2024-01-06T01:09:30;2;2;
69123;PMS5003;56232;53.384;-2.732;2024-01-06T01:11:56;4;3;
69123;PMS5003;56232;53.384;-2.732;2024-01-06T01:14:22;3;3;
69123;PMS5003;56232;53.384;-2.732;2024-01-06T01:16:47;4;3;
69123;PMS5003;56232;53.384;-2.732;2024-01-06T01:19:13;4;2;
69123;PMS5003;56232;53.384;-2.732;2024-01-06T01:21:38;2;2;
69123;PMS5003;56232;53.384;-2.732;2024-01-06T01:24:04;3;3;
69123;PMS5003;56232;53.384;-2.732;2024-01-06T01:26:30;1;1;
69123;PMS5003;56232;53.384;-2.732;2024-01-06T01:28:55;4;2;
69123;PMS5003;56232;53.384;-2.732;2024-01-06T01:31:22;4;3;
69123;PMS5003;56232;53.384;-2.732;2024-01-06T01:33:47;1;1;
69123;PMS5003;56232;53.384;-2.732;2024-01-06T01:36:13;4;3;
69123;PMS5003;56232;53.384;-2.732;2024-01-06T01:38:38;3;3;
69123;PMS5003;56232;53.384;-2.732;2024-01-06T01:41:04;3;2;
69123;PMS5003;56232;53.384;-2.732;2024-01-06T01:43:30;2;2;
69123;PMS5003;56232;53.384;-2.732;2024-01-06T01:45:56;3;2;
69123;PMS5003;56232;53.384;-2.732;2024-01-06T01:48:22;1;1;
69123;PMS5003;56232;53.384;-2.732;2024-01-06T01:50:47;1;0;
69123;PMS5003;56232;53.384;-2.732;2024-01-06T01:53:13;2;1;
69123;PMS5003;56232;53.384;-2.732;2024-01-06T01:55:38;3;2;
69123;PMS5003;56232;53.384;-2.732;2024-01-06T01:58:04;2;2;
69123;PMS5003;56232;53.384;-2.732;2024-01-06T02:00:30;3;2;
69123;PMS5003;56232;53.384;-2.732;2024-01-06T02:02:56;2;1;
69123;PMS5003;56232;53.384;-2.732;2024-01-06T02:05:22;3;2;
69123;PMS5003;56232;53.384;-2.732;2024-01-06T02:07:47;3;3;
69123;PMS5003;56232;53.384;-2.732;2024-01-06T02:10:13;3;3;
69123;PMS5003;56232;53.384;-2.732;2024-01-06T02:12:39;4;4;
69123;PMS5003;56232;53.384;-2.732;2024-01-06T02:15:04;4;2;
69123;PMS5003;56232;53.384;-2.732;2024-01-06T02:17:30;2;2;
69123;PMS5003;56232;53.384;-2.732;2024-01-06T02:19:56;2;2;
69123;PMS5003;56232;53.384;-2.732;2024-01-06T02:22:22;3;3;
69123;PMS5003;56232;53.384;-2.732;2024-01-06T02:24:47;2;2;
69123;PMS5003;56232;53.384;-2.732;2024-01-06T02:27:14;3;2;
69123;PMS5003;56232;53.384;-2.732;2024-01-06T02:29:39;1;1;
69123;PMS5003;56232;53.384;-2.732;2024-01-06T02:32:05;3;3;
69123;PMS5003;56232;53.384;-2.732;2024-01-06T02:34:30;2;2;
69123;PMS5003;56232;53.384;-2.732;2024-01-06T02:36:56;2;2;
69123;PMS5003;56232;53.384;-2.732;2024-01-06T02:39:22;3;3;
69123;PMS5003;56232;53.384;-2.732;2024-01-06T02:41:47;1;1;
69123;PMS5003;56232;53.384;-2.732;2024-01-06T02:44:13;2;2;
69123;PMS5003;56232;53.384;-2.732;2024-01-06T02:46:39;2;2;
69123;PMS5003;56232;53.384;-2.732;2024-01-06T02:49:05;2;2;
69123;PMS5003;56232;53.384;-2.732;2024-01-06T02:51:30;3;3;
69123;PMS5003;56232;53.384;-2.732;2024-01-06T02:53:56;1;1;
69123;PMS5003;56232;53.384;-2.732;2024-01-06T02:56:22;1;1;
69123;PMS5003;56232;53.384;-2.732;2024-01-06T02:58:48;1;1;
69123;PMS5003;56232;53.384;-2.732;2024-01-06T03:01:13;2;2;
69123;PMS5003;56232;53.384;-2.732;2024-01-06T03:03:39;1;1;
69123;PMS5003;56232;53.384;-2.732;2024-01-06T03:06:05;2;2;
69123;PMS5003;56232;53.384;-2.732;2024-01-06T03:08:31;1;1;
69123;PMS5003;56232;53.384;-2.732;2024-01-06T03:10:57;2;2;
69123;PMS5003;56232;53.384;-2.732;2024-01-06T03:13:23;2;2;
69123;PMS5003;56232;53.384;-2.732;2024-01-06T03:15:48;1;1;
69123;PMS5003;56232;53.384;-2.732;2024-01-06T03:18:14;1;1;
69123;PMS5003;56232;53.384;-2.732;2024-01-06T03:20:40;1;1;
69123;PMS5003;56232;53.384;-2.732;2024-01-06T03:23:05;1;1;
69123;PMS5003;56232;53.384;-2.732;2024-01-06T03:25:31;4;3;
69123;PMS5003;56232;53.384;-2.732;2024-01-06T03:27:57;2;2;
69123;PMS5003;56232;53.384;-2.732;2024-01-06T03:30:23;2;1;
69123;PMS5003;56232;53.384;-2.732;2024-01-06T03:32:48;1;1;
69123;PMS5003;56232;53.384;-2.732;2024-01-06T03:35:13;0;0;
69123;PMS5003;56232;53.384;-2.732;2024-01-06T03:37:39;1;1;
69123;PMS5003;56232;53.384;-2.732;2024-01-06T03:40:05;0;0;
69123;PMS5003;56232;53.384;-2.732;2024-01-06T03:42:31;1;1;
69123;PMS5003;56232;53.384;-2.732;2024-01-06T03:44:56;1;1;
69123;PMS5003;56232;53.384;-2.732;2024-01-06T03:47:22;3;2;
69123;PMS5003;56232;53.384;-2.732;2024-01-06T03:49:48;2;1;
69123;PMS5003;56232;53.384;-2.732;2024-01-06T03:52:14;1;1;
69123;PMS5003;56232;53.384;-2.732;2024-01-06T03:54:39;1;1;
69123;PMS5003;56232;53.384;-2.732;2024-01-06T03:57:05;1;1;
69123;PMS5003;56232;53.384;-2.732;2024-01-06T03:59:31;0;0;
69123;PMS5003;56232;53.384;-2.732;2024-01-06T04:01:57;0;0;
69123;PMS5003;56232;53.384;-2.732;2024-01-06T04:04:24;0;0;
69123;PMS5003;56232;53.384;-2.732;2024-01-06T04:06:48;1;1;
69123;PMS5003;56232;53.384;-2.732;2024-01-06T04:09:14;1;1;
69123;PMS5003;56232;53.384;-2.732;2024-01-06T04:11:40;1;1;
69123;PMS5003;56232;53.384;-2.732;2024-01-06T04:14:06;1;0;
69123;PMS5003;56232;53.384;-2.732;2024-01-06T04:16:31;0;0;
69123;PMS5003;56232;53.384;-2.732;2024-01-06T04:18:57;1;1;
69123;PMS5003;56232;53.384;-2.732;2024-01-06T04:21:23;1;0;
69123;PMS5003;56232;53.384;-2.732;2024-01-06T04:23:49;1;1;
69123;PMS5003;56232;53.384;-2.732;2024-01-06T04:26:14;1;1;
69123;PMS5003;56232;53.384;-2.732;2024-01-06T04:28:40;1;1;
69123;PMS5003;56232;53.384;-2.732;2024-01-06T04:31:06;2;2;
69123;PMS5003;56232;53.384;-2.732;2024-01-06T04:33:32;1;1;
69123;PMS5003;56232;53.384;-2.732;2024-01-06T04:35:57;1;1;
69123;PMS5003;56232;53.384;-2.732;2024-01-06T04:38:24;1;1;
69123;PMS5003;56232;53.384;-2.732;2024-01-06T04:40:49;1;1;
69123;PMS5003;56232;53.384;-2.732;2024-01-06T04:43:14;1;1;
69123;PMS5003;56232;53.384;-2.732;2024-01-06T04:45:40;1;1;
69123;PMS5003;56232;53.384;-2.732;2024-01-06T04:48:06;1;1;
69123;PMS5003;56232;53.384;-2.732;2024-01-06T04:50:32;1;1;
69123;PMS5003;56232;53.384;-2.732;2024-01-06T04:52:58;1;1;
69123;PMS5003;56232;53.384;-2.732;2024-01-06T04:55:24;1;1;
69123;PMS5003;56232;53.384;-2.732;2024-01-06T04:57:49;1;1;
69123;PMS5003;56232;53.384;-2.732;2024-01-06T05:00:15;2;2;
69123;PMS5003;56232;53.384;-2.732;2024-01-06T05:02:41;2;2;
69123;PMS5003;56232;53.384;-2.732;2024-01-06T05:05:07;1;1;
69123;PMS5003;56232;53.384;-2.732;2024-01-06T05:07:32;3;3;
69123;PMS5003;56232;53.384;-2.732;2024-01-06T05:09:58;2;2;
69123;PMS5003;56232;53.384;-2.732;2024-01-06T05:12:24;2;2;
69123;PMS5003;56232;53.384;-2.732;2024-01-06T05:14:50;2;2;
69123;PMS5003;56232;53.384;-2.732;2024-01-06T05:17:15;2;2;
69123;PMS5003;56232;53.384;-2.732;2024-01-06T05:19:41;2;2;
69123;PMS5003;56232;53.384;-2.732;2024-01-06T05:22:07;4;3;
69123;PMS5003;56232;53.384;-2.732;2024-01-06T05:24:33;2;2;
69123;PMS5003;56232;53.384;-2.732;2024-01-06T05:26:59;3;3;
69123;PMS5003;56232;53.384;-2.732;2024-01-06T05:29:24;5;5;
69123;PMS5003;56232;53.384;-2.732;2024-01-06T05:31:50;3;3;
69123;PMS5003;56232;53.384;-2.732;2024-01-06T05:34:16;3;2;
69123;PMS5003;56232;53.384;-2.732;2024-01-06T05:36:42;3;3;
69123;PMS5003;56232;53.384;-2.732;2024-01-06T05:39:08;3;3;
69123;PMS5003;56232;53.384;-2.732;2024-01-06T05:41:37;4;3;
69123;PMS5003;56232;53.384;-2.732;2024-01-06T05:44:00;2;2;
69123;PMS5003;56232;53.384;-2.732;2024-01-06T05:46:25;2;2;
69123;PMS5003;56232;53.384;-2.732;2024-01-06T05:48:51;3;3;
69123;PMS5003;56232;53.384;-2.732;2024-01-06T05:51:17;2;2;
69123;PMS5003;56232;53.384;-2.732;2024-01-06T05:53:43;2;2;
69123;PMS5003;56232;53.384;-2.732;2024-01-06T05:56:09;3;3;
69123;PMS5003;56232;53.384;-2.732;2024-01-06T05:58:34;3;2;
69123;PMS5003;56232;53.384;-2.732;2024-01-06T06:01:00;4;3;
69123;PMS5003;56232;53.384;-2.732;2024-01-06T06:03:26;3;2;
69123;PMS5003;56232;53.384;-2.732;2024-01-06T06:05:52;3;3;
69123;PMS5003;56232;53.384;-2.732;2024-01-06T06:08:17;2;2;
69123;PMS5003;56232;53.384;-2.732;2024-01-06T06:10:43;3;3;
69123;PMS5003;56232;53.384;-2.732;2024-01-06T06:13:09;2;2;
69123;PMS5003;56232;53.384;-2.732;2024-01-06T06:15:34;4;3;
69123;PMS5003;56232;53.384;-2.732;2024-01-06T06:18:00;4;4;
69123;PMS5003;56232;53.384;-2.732;2024-01-06T06:20:26;4;3;
69123;PMS5003;56232;53.384;-2.732;2024-01-06T06:22:52;3;3;
69123;PMS5003;56232;53.384;-2.732;2024-01-06T06:25:18;4;4;
69123;PMS5003;56232;53.384;-2.732;2024-01-06T06:27:43;3;3;
69123;PMS5003;56232;53.384;-2.732;2024-01-06T06:30:10;3;3;
69123;PMS5003;56232;53.384;-2.732;2024-01-06T06:32:35;4;4;
69123;PMS5003;56232;53.384;-2.732;2024-01-06T06:35:01;4;4;
69123;PMS5003;56232;53.384;-2.732;2024-01-06T06:37:27;3;3;
69123;PMS5003;56232;53.384;-2.732;2024-01-06T06:39:52;6;6;
69123;PMS5003;56232;53.384;-2.732;2024-01-06T06:42:18;4;4;
69123;PMS5003;56232;53.384;-2.732;2024-01-06T06:44:44;4;4;
69123;PMS5003;56232;53.384;-2.732;2024-01-06T06:47:10;5;5;
69123;PMS5003;56232;53.384;-2.732;2024-01-06T06:49:36;5;5;
69123;PMS5003;56232;53.384;-2.732;2024-01-06T06:52:02;5;5;
69123;PMS5003;56232;53.384;-2.732;2024-01-06T06:54:28;5;5;
69123;PMS5003;56232;53.384;-2.732;2024-01-06T06:56:53;4;4;
69123;PMS5003;56232;53.384;-2.732;2024-01-06T06:59:19;6;6;
69123;PMS5003;56232;53.384;-2.732;2024-01-06T07:01:44;4;4;
69123;PMS5003;56232;53.384;-2.732;2024-01-06T07:04:10;5;5;
69123;PMS5003;56232;53.384;-2.732;2024-01-06T07:06:36;4;4;
69123;PMS5003;56232;53.384;-2.732;2024-01-06T07:09:02;5;4;
69123;PMS5003;56232;53.384;-2.732;2024-01-06T07:11:28;6;5;
69123;PMS5003;56232;53.384;-2.732;2024-01-06T07:13:54;6;5;
69123;PMS5003;56232;53.384;-2.732;2024-01-06T07:16:19;5;4;
69123;PMS5003;56232;53.384;-2.732;2024-01-06T07:18:45;7;7;
69123;PMS5003;56232;53.384;-2.732;2024-01-06T07:21:11;7;6;
69123;PMS5003;56232;53.384;-2.732;2024-01-06T07:23:37;5;5;
69123;PMS5003;56232;53.384;-2.732;2024-01-06T07:26:03;4;4;
69123;PMS5003;56232;53.384;-2.732;2024-01-06T07:28:28;4;4;
69123;PMS5003;56232;53.384;-2.732;2024-01-06T07:30:54;5;5;
69123;PMS5003;56232;53.384;-2.732;2024-01-06T07:33:20;6;5;
69123;PMS5003;56232;53.384;-2.732;2024-01-06T07:35:46;6;5;
69123;PMS5003;56232;53.384;-2.732;2024-01-06T07:38:11;5;5;
69123;PMS5003;56232;53.384;-2.732;2024-01-06T07:40:36;4;4;
69123;PMS5003;56232;53.384;-2.732;2024-01-06T07:43:02;4;4;
69123;PMS5003;56232;53.384;-2.732;2024-01-06T07:45:28;4;4;
69123;PMS5003;56232;53.384;-2.732;2024-01-06T07:47:54;5;5;
69123;PMS5003;56232;53.384;-2.732;2024-01-06T07:50:20;7;7;
69123;PMS5003;56232;53.384;-2.732;2024-01-06T07:52:45;4;4;
69123;PMS5003;56232;53.384;-2.732;2024-01-06T07:55:11;4;4;
69123;PMS5003;56232;53.384;-2.732;2024-01-06T07:57:37;7;6;
69123;PMS5003;56232;53.384;-2.732;2024-01-06T08:00:03;5;5;
69123;PMS5003;56232;53.384;-2.732;2024-01-06T08:02:29;5;5;
69123;PMS5003;56232;53.384;-2.732;2024-01-06T08:04:55;6;5;
69123;PMS5003;56232;53.384;-2.732;2024-01-06T08:07:20;9;5;
69123;PMS5003;56232;53.384;-2.732;2024-01-06T08:09:46;6;5;
69123;PMS5003;56232;53.384;-2.732;2024-01-06T08:12:12;7;7;
69123;PMS5003;56232;53.384;-2.732;2024-01-06T08:14:38;6;6;
69123;PMS5003;56232;53.384;-2.732;2024-01-06T08:17:03;7;7;
69123;PMS5003;56232;53.384;-2.732;2024-01-06T08:19:28;7;6;
69123;PMS5003;56232;53.384;-2.732;2024-01-06T08:21:55;6;6;
69123;PMS5003;56232;53.384;-2.732;2024-01-06T08:24:20;9;9;
69123;PMS5003;56232;53.384;-2.732;2024-01-06T08:26:46;7;6;
69123;PMS5003;56232;53.384;-2.732;2024-01-06T08:29:12;11;10;
69123;PMS5003;56232;53.384;-2.732;2024-01-06T08:31:38;7;7;
69123;PMS5003;56232;53.384;-2.732;2024-01-06T08:34:04;10;8;
69123;PMS5003;56232;53.384;-2.732;2024-01-06T08:36:30;9;9;
69123;PMS5003;56232;53.384;-2.732;2024-01-06T08:38:55;7;6;
69123;PMS5003;56232;53.384;-2.732;2024-01-06T08:41:21;8;8;
69123;PMS5003;56232;53.384;-2.732;2024-01-06T08:43:47;8;7;
69123;PMS5003;56232;53.384;-2.732;2024-01-06T08:46:13;7;7;
69123;PMS5003;56232;53.384;-2.732;2024-01-06T08:48:38;8;8;
69123;PMS5003;56232;53.384;-2.732;2024-01-06T08:51:04;10;10;
69123;PMS5003;56232;53.384;-2.732;2024-01-06T08:53:30;10;10;
69123;PMS5003;56232;53.384;-2.732;2024-01-06T08:55:56;10;10;
69123;PMS5003;56232;53.384;-2.732;2024-01-06T08:58:22;12;11;
69123;PMS5003;56232;53.384;-2.732;2024-01-06T09:00:47;8;8;
69123;PMS5003;56232;53.384;-2.732;2024-01-06T09:03:13;13;13;
69123;PMS5003;56232;53.384;-2.732;2024-01-06T09:05:39;21;20;
69123;PMS5003;56232;53.384;-2.732;2024-01-06T09:08:05;14;13;
69123;PMS5003;56232;53.384;-2.732;2024-01-06T09:10:30;14;14;
69123;PMS5003;56232;53.384;-2.732;2024-01-06T09:12:56;13;13;
69123;PMS5003;56232;53.384;-2.732;2024-01-06T09:15:21;15;14;
69123;PMS5003;56232;53.384;-2.732;2024-01-06T09:17:47;12;12;
69123;PMS5003;56232;53.384;-2.732;2024-01-06T09:20:13;12;12;
69123;PMS5003;56232;53.384;-2.732;2024-01-06T09:22:39;13;13;
69123;PMS5003;56232;53.384;-2.732;2024-01-06T09:25:05;13;12;
69123;PMS5003;56232;53.384;-2.732;2024-01-06T09:27:30;13;13;
69123;PMS5003;56232;53.384;-2.732;2024-01-06T09:29:56;13;12;
69123;PMS5003;56232;53.384;-2.732;2024-01-06T09:32:22;9;9;
69123;PMS5003;56232;53.384;-2.732;2024-01-06T09:34:48;9;9;
69123;PMS5003;56232;53.384;-2.732;2024-01-06T09:37:14;9;9;
69123;PMS5003;56232;53.384;-2.732;2024-01-06T09:39:39;13;12;
69123;PMS5003;56232;53.384;-2.732;2024-01-06T09:42:05;15;13;
69123;PMS5003;56232;53.384;-2.732;2024-01-06T09:44:32;10;10;
69123;PMS5003;56232;53.384;-2.732;2024-01-06T09:46:57;15;14;
69123;PMS5003;56232;53.384;-2.732;2024-01-06T09:49:23;15;15;
69123;PMS5003;56232;53.384;-2.732;2024-01-06T09:51:48;16;15;
69123;PMS5003;56232;53.384;-2.732;2024-01-06T09:54:13;12;11;
69123;PMS5003;56232;53.384;-2.732;2024-01-06T09:56:39;15;14;
69123;PMS5003;56232;53.384;-2.732;2024-01-06T09:59:05;14;14;
69123;PMS5003;56232;53.384;-2.732;2024-01-06T10:01:30;12;12;
69123;PMS5003;56232;53.384;-2.732;2024-01-06T10:03:56;14;13;
69123;PMS5003;56232;53.384;-2.732;2024-01-06T10:06:22;14;14;
69123;PMS5003;56232;53.384;-2.732;2024-01-06T10:08:48;13;12;
69123;PMS5003;56232;53.384;-2.732;2024-01-06T10:11:13;14;13;
69123;PMS5003;56232;53.384;-2.732;2024-01-06T10:13:39;13;13;
69123;PMS5003;56232;53.384;-2.732;2024-01-06T10:16:04;24;24;
69123;PMS5003;56232;53.384;-2.732;2024-01-06T10:18:29;19;17;
69123;PMS5003;56232;53.384;-2.732;2024-01-06T10:20:55;16;16;
69123;PMS5003;56232;53.384;-2.732;2024-01-06T10:23:22;18;16;
69123;PMS5003;56232;53.384;-2.732;2024-01-06T10:25:46;18;18;
69123;PMS5003;56232;53.384;-2.732;2024-01-06T10:28:12;16;16;
69123;PMS5003;56232;53.384;-2.732;2024-01-06T10:30:38;23;23;
69123;PMS5003;56232;53.384;-2.732;2024-01-06T10:33:08;20;20;
69123;PMS5003;56232;53.384;-2.732;2024-01-06T10:35:28;21;20;
69123;PMS5003;56232;53.384;-2.732;2024-01-06T10:37:54;20;19;
69123;PMS5003;56232;53.384;-2.732;2024-01-06T10:40:20;22;20;
69123;PMS5003;56232;53.384;-2.732;2024-01-06T10:42:45;21;19;
69123;PMS5003;56232;53.384;-2.732;2024-01-06T10:45:11;26;23;
69123;PMS5003;56232;53.384;-2.732;2024-01-06T10:47:35;19;19;
69123;PMS5003;56232;53.384;-2.732;2024-01-06T10:50:01;25;22;
69123;PMS5003;56232;53.384;-2.732;2024-01-06T10:52:26;23;21;
69123;PMS5003;56232;53.384;-2.732;2024-01-06T10:54:51;23;21;
69123;PMS5003;56232;53.384;-2.732;2024-01-06T10:57:16;30;26;
69123;PMS5003;56232;53.384;-2.732;2024-01-06T10:59:41;24;20;
69123;PMS5003;56232;53.384;-2.732;2024-01-06T11:02:07;20;20;
69123;PMS5003;56232;53.384;-2.732;2024-01-06T11:04:32;21;17;
69123;PMS5003;56232;53.384;-2.732;2024-01-06T11:06:57;22;21;
69123;PMS5003;56232;53.384;-2.732;2024-01-06T11:09:26;22;22;
69123;PMS5003;56232;53.384;-2.732;2024-01-06T11:11:49;23;21;
69123;PMS5003;56232;53.384;-2.732;2024-01-06T11:14:18;25;24;
69123;PMS5003;56232;53.384;-2.732;2024-01-06T11:16:40;20;19;
69123;PMS5003;56232;53.384;-2.732;2024-01-06T11:21:33;21;20;
69123;PMS5003;56232;53.384;-2.732;2024-01-06T11:26:23;24;24;
69123;PMS5003;56232;53.384;-2.732;2024-01-06T11:28:48;29;27;
69123;PMS5003;56232;53.384;-2.732;2024-01-06T11:31:13;35;32;
69123;PMS5003;56232;53.384;-2.732;2024-01-06T11:33:41;37;32;
69123;PMS5003;56232;53.384;-2.732;2024-01-06T11:36:06;30;30;
69123;PMS5003;56232;53.384;-2.732;2024-01-06T11:38:31;34;32;
69123;PMS5003;56232;53.384;-2.732;2024-01-06T11:40:54;32;30;
69123;PMS5003;56232;53.384;-2.732;2024-01-06T11:43:20;33;30;
69123;PMS5003;56232;53.384;-2.732;2024-01-06T11:45:45;35;32;
69123;PMS5003;56232;53.384;-2.732;2024-01-06T11:48:11;29;29;
69123;PMS5003;56232;53.384;-2.732;2024-01-06T11:50:37;33;31;
69123;PMS5003;56232;53.384;-2.732;2024-01-06T11:53:02;33;30;
69123;PMS5003;56232;53.384;-2.732;2024-01-06T11:55:28;29;29;
69123;PMS5003;56232;53.384;-2.732;2024-01-06T11:57:53;22;22;
69123;PMS5003;56232;53.384;-2.732;2024-01-06T12:00:19;25;25;
69123;PMS5003;56232;53.384;-2.732;2024-01-06T12:02:45;25;23;
69123;PMS5003;56232;53.384;-2.732;2024-01-06T12:05:13;26;23;
69123;PMS5003;56232;53.384;-2.732;2024-01-06T12:07:36;35;30;
69123;PMS5003;56232;53.384;-2.732;2024-01-06T12:10:02;42;38;
69123;PMS5003;56232;53.384;-2.732;2024-01-06T12:12:27;34;32;
69123;PMS5003;56232;53.384;-2.732;2024-01-06T12:14:53;33;32;
69123;PMS5003;56232;53.384;-2.732;2024-01-06T12:17:19;21;21;
69123;PMS5003;56232;53.384;-2.732;2024-01-06T12:19:44;24;24;
69123;PMS5003;56232;53.384;-2.732;2024-01-06T12:22:10;18;17;
69123;PMS5003;56232;53.384;-2.732;2024-01-06T12:24:34;14;14;
69123;PMS5003;56232;53.384;-2.732;2024-01-06T12:27:00;9;9;
69123;PMS5003;56232;53.384;-2.732;2024-01-06T12:29:30;7;6;
69123;PMS5003;56232;53.384;-2.732;2024-01-06T12:31:51;9;9;
69123;PMS5003;56232;53.384;-2.732;2024-01-06T12:34:17;7;6;
69123;PMS5003;56232;53.384;-2.732;2024-01-06T12:36:43;5;5;
69123;PMS5003;56232;53.384;-2.732;2024-01-06T12:39:10;6;5;
69123;PMS5003;56232;53.384;-2.732;2024-01-06T12:41:34;6;6;
69123;PMS5003;56232;53.384;-2.732;2024-01-06T12:43:59;5;5;
69123;PMS5003;56232;53.384;-2.732;2024-01-06T12:46:25;4;4;
69123;PMS5003;56232;53.384;-2.732;2024-01-06T12:48:50;3;3;
69123;PMS5003;56232;53.384;-2.732;2024-01-06T12:51:15;8;6;
69123;PMS5003;56232;53.384;-2.732;2024-01-06T12:53:41;5;5;
69123;PMS5003;56232;53.384;-2.732;2024-01-06T12:56:07;6;6;
69123;PMS5003;56232;53.384;-2.732;2024-01-06T12:58:33;4;4;
69123;PMS5003;56232;53.384;-2.732;2024-01-06T13:00:58;5;5;
69123;PMS5003;56232;53.384;-2.732;2024-01-06T13:03:24;6;6;
69123;PMS5003;56232;53.384;-2.732;2024-01-06T13:05:50;5;4;
69123;PMS5003;56232;53.384;-2.732;2024-01-06T13:08:15;5;5;
69123;PMS5003;56232;53.384;-2.732;2024-01-06T13:10:41;7;7;
69123;PMS5003;56232;53.384;-2.732;2024-01-06T13:13:07;6;5;
69123;PMS5003;56232;53.384;-2.732;2024-01-06T13:15:32;5;5;
69123;PMS5003;56232;53.384;-2.732;2024-01-06T13:17:58;5;5;
69123;PMS5003;56232;53.384;-2.732;2024-01-06T13:20:24;4;4;
69123;PMS5003;56232;53.384;-2.732;2024-01-06T13:22:49;3;3;
69123;PMS5003;56232;53.384;-2.732;2024-01-06T13:25:15;4;4;
69123;PMS5003;56232;53.384;-2.732;2024-01-06T13:27:41;3;3;
69123;PMS5003;56232;53.384;-2.732;2024-01-06T13:30:07;3;3;
69123;PMS5003;56232;53.384;-2.732;2024-01-06T13:32:32;3;3;
69123;PMS5003;56232;53.384;-2.732;2024-01-06T13:34:58;2;2;
69123;PMS5003;56232;53.384;-2.732;2024-01-06T13:37:24;3;3;
69123;PMS5003;56232;53.384;-2.732;2024-01-06T13:39:49;2;2;
69123;PMS5003;56232;53.384;-2.732;2024-01-06T13:42:15;3;3;
69123;PMS5003;56232;53.384;-2.732;2024-01-06T13:44:40;4;4;
69123;PMS5003;56232;53.384;-2.732;2024-01-06T13:47:06;3;3;
69123;PMS5003;56232;53.384;-2.732;2024-01-06T13:49:32;3;2;
69123;PMS5003;56232;53.384;-2.732;2024-01-06T13:51:57;4;2;
69123;PMS5003;56232;53.384;-2.732;2024-01-06T13:54:23;3;3;
69123;PMS5003;56232;53.384;-2.732;2024-01-06T13:56:49;3;3;
69123;PMS5003;56232;53.384;-2.732;2024-01-06T13:59:14;2;2;
69123;PMS5003;56232;53.384;-2.732;2024-01-06T14:01:40;3;3;
69123;PMS5003;56232;53.384;-2.732;2024-01-06T14:04:05;3;3;
69123;PMS5003;56232;53.384;-2.732;2024-01-06T14:06:31;5;4;
69123;PMS5003;56232;53.384;-2.732;2024-01-06T14:08:57;3;3;
69123;PMS5003;56232;53.384;-2.732;2024-01-06T14:11:22;4;3;
69123;PMS5003;56232;53.384;-2.732;2024-01-06T14:13:48;4;4;
69123;PMS5003;56232;53.384;-2.732;2024-01-06T14:16:14;2;2;
69123;PMS5003;56232;53.384;-2.732;2024-01-06T14:18:39;4;3;
69123;PMS5003;56232;53.384;-2.732;2024-01-06T14:21:05;3;3;
69123;PMS5003;56232;53.384;-2.732;2024-01-06T14:23:31;2;2;
69123;PMS5003;56232;53.384;-2.732;2024-01-06T14:25:57;3;3;
69123;PMS5003;56232;53.384;-2.732;2024-01-06T14:28:22;7;5;
69123;PMS5003;56232;53.384;-2.732;2024-01-06T14:30:48;3;3;
69123;PMS5003;56232;53.384;-2.732;2024-01-06T14:33:13;5;5;
69123;PMS5003;56232;53.384;-2.732;2024-01-06T14:35:39;3;3;
69123;PMS5003;56232;53.384;-2.732;2024-01-06T14:38:05;3;2;
69123;PMS5003;56232;53.384;-2.732;2024-01-06T14:40:31;2;2;
69123;PMS5003;56232;53.384;-2.732;2024-01-06T14:42:56;2;2;
69123;PMS5003;56232;53.384;-2.732;2024-01-06T14:45:22;4;4;
69123;PMS5003;56232;53.384;-2.732;2024-01-06T14:47:47;3;2;
69123;PMS5003;56232;53.384;-2.732;2024-01-06T14:50:12;9;4;
69123;PMS5003;56232;53.384;-2.732;2024-01-06T14:52:37;3;3;
69123;PMS5003;56232;53.384;-2.732;2024-01-06T14:55:03;4;3;
69123;PMS5003;56232;53.384;-2.732;2024-01-06T14:57:29;4;3;
69123;PMS5003;56232;53.384;-2.732;2024-01-06T14:59:54;3;3;
69123;PMS5003;56232;53.384;-2.732;2024-01-06T15:02:26;3;3;
69123;PMS5003;56232;53.384;-2.732;2024-01-06T15:04:46;4;4;
69123;PMS5003;56232;53.384;-2.732;2024-01-06T15:07:11;5;4;
69123;PMS5003;56232;53.384;-2.732;2024-01-06T15:09:38;7;7;
69123;PMS5003;56232;53.384;-2.732;2024-01-06T15:12:03;10;9;
69123;PMS5003;56232;53.384;-2.732;2024-01-06T15:14:29;10;9;
69123;PMS5003;56232;53.384;-2.732;2024-01-06T15:16:54;4;4;
69123;PMS5003;56232;53.384;-2.732;2024-01-06T15:19:20;5;3;
69123;PMS5003;56232;53.384;-2.732;2024-01-06T15:21:45;6;5;
69123;PMS5003;56232;53.384;-2.732;2024-01-06T15:24:11;8;7;
69123;PMS5003;56232;53.384;-2.732;2024-01-06T15:26:37;6;5;
69123;PMS5003;56232;53.384;-2.732;2024-01-06T15:29:02;5;5;
69123;PMS5003;56232;53.384;-2.732;2024-01-06T15:31:29;7;6;
69123;PMS5003;56232;53.384;-2.732;2024-01-06T15:33:54;6;5;
69123;PMS5003;56232;53.384;-2.732;2024-01-06T15:36:19;7;6;
69123;PMS5003;56232;53.384;-2.732;2024-01-06T15:38:45;6;6;
69123;PMS5003;56232;53.384;-2.732;2024-01-06T15:41:11;5;5;
69123;PMS5003;56232;53.384;-2.732;2024-01-06T15:43:37;6;6;
69123;PMS5003;56232;53.384;-2.732;2024-01-06T15:46:02;8;8;
69123;PMS5003;56232;53.384;-2.732;2024-01-06T15:48:28;8;7;
69123;PMS5003;56232;53.384;-2.732;2024-01-06T15:50:54;8;8;
69123;PMS5003;56232;53.384;-2.732;2024-01-06T15:53:19;7;7;
69123;PMS5003;56232;53.384;-2.732;2024-01-06T15:55:45;11;10;
69123;PMS5003;56232;53.384;-2.732;2024-01-06T15:58:11;4;4;
69123;PMS5003;56232;53.384;-2.732;2024-01-06T16:00:36;7;7;
69123;PMS5003;56232;53.384;-2.732;2024-01-06T16:03:02;4;4;
69123;PMS5003;56232;53.384;-2.732;2024-01-06T16:05:28;4;4;
69123;PMS5003;56232;53.384;-2.732;2024-01-06T16:07:54;5;5;
69123;PMS5003;56232;53.384;-2.732;2024-01-06T16:10:19;6;6;
69123;PMS5003;56232;53.384;-2.732;2024-01-06T16:12:45;5;5;
69123;PMS5003;56232;53.384;-2.732;2024-01-06T16:15:11;5;5;
69123;PMS5003;56232;53.384;-2.732;2024-01-06T16:17:36;6;5;
69123;PMS5003;56232;53.384;-2.732;2024-01-06T16:20:02;9;8;